createdAt,value
2018-10-07T00:01:06.304Z,9.60
2018-10-07T00:03:35.422Z,9.30
2018-10-07T00:06:04.554Z,9.10
2018-10-07T00:08:33.803Z,8.77
2018-10-07T00:11:03.088Z,8.73
2018-10-07T00:13:32.253Z,9.20
2018-10-07T00:16:01.135Z,9.03
2018-10-07T00:18:30.352Z,8.67
2018-10-07T00:20:59.290Z,9.87
2018-10-07T00:23:28.547Z,9.63
2018-10-07T00:25:57.791Z,9.87
2018-10-07T00:28:26.727Z,10.30
2018-10-07T00:30:55.919Z,10.27
2018-10-07T00:33:24.911Z,9.67
2018-10-07T00:35:54.063Z,9.53
2018-10-07T00:38:23.262Z,9.63
2018-10-07T00:40:52.290Z,9.07
2018-10-07T00:43:21.451Z,9.50
2018-10-07T00:45:50.487Z,8.47
2018-10-07T00:48:19.787Z,9.70
2018-10-07T00:50:48.723Z,10.23
2018-10-07T00:53:17.975Z,9.50
2018-10-07T00:55:47.136Z,9.13
2018-10-07T00:58:16.589Z,10.83
2018-10-07T01:00:45.736Z,10.23
2018-10-07T01:03:14.760Z,10.97
2018-10-07T01:05:43.963Z,9.93
2018-10-07T01:08:12.943Z,9.93
2018-10-07T01:10:42.159Z,10.83
2018-10-07T01:13:11.144Z,11.00
2018-10-07T01:15:40.384Z,11.10
2018-10-07T01:18:09.571Z,11.27
2018-10-07T01:20:38.538Z,11.00
2018-10-07T01:23:08.299Z,10.53
2018-10-07T01:25:37.548Z,9.97
2018-10-07T01:28:06.868Z,10.17
2018-10-07T01:30:36.032Z,9.57
2018-10-07T01:33:05.272Z,9.70
2018-10-07T01:35:34.527Z,10.50
2018-10-07T01:38:03.768Z,9.73
2018-10-07T01:40:32.987Z,10.13
2018-10-07T01:43:02.323Z,10.40
2018-10-07T01:45:31.572Z,9.97
2018-10-07T01:48:00.712Z,10.07
2018-10-07T01:50:29.766Z,9.93
2018-10-07T01:52:58.907Z,10.70
2018-10-07T01:55:28.112Z,10.10
2018-10-07T01:57:57.355Z,10.37
2018-10-07T02:00:26.455Z,10.17
2018-10-07T02:02:55.591Z,10.27
2018-10-07T02:05:24.641Z,10.00
2018-10-07T02:07:53.884Z,9.70
2018-10-07T02:10:23.035Z,10.37
2018-10-07T02:12:52.380Z,9.67
2018-10-07T02:15:21.371Z,10.13
2018-10-07T02:17:50.579Z,9.93
2018-10-07T02:20:19.768Z,10.80
2018-10-07T02:22:49.060Z,9.70
2018-10-07T02:25:18.009Z,10.20
2018-10-07T02:27:47.208Z,9.37
2018-10-07T02:30:16.126Z,10.47
2018-10-07T02:32:45.350Z,10.03
2018-10-07T02:35:14.323Z,9.70
2018-10-07T02:37:43.587Z,9.57
2018-10-07T02:40:12.827Z,10.00
2018-10-07T02:42:42.083Z,8.73
2018-10-07T02:45:11.376Z,9.00
2018-10-07T02:47:40.475Z,8.13
2018-10-07T02:50:16.919Z,8.10
2018-10-07T02:52:48.019Z,8.60
2018-10-07T02:55:20.879Z,8.87
2018-10-07T02:57:51.566Z,8.47
2018-10-07T03:00:20.503Z,8.63
2018-10-07T03:02:49.876Z,8.33
2018-10-07T03:05:19.097Z,8.13
2018-10-07T03:07:48.695Z,8.03
2018-10-07T03:10:17.891Z,8.20
2018-10-07T03:12:47.180Z,9.00
2018-10-07T03:15:16.373Z,8.33
2018-10-07T03:17:45.559Z,8.53
2018-10-07T03:20:14.767Z,7.73
2018-10-07T03:22:43.616Z,9.37
2018-10-07T03:25:12.969Z,8.60
2018-10-07T03:27:42.051Z,7.13
2018-10-07T03:30:11.003Z,8.47
2018-10-07T03:32:39.849Z,7.50
2018-10-07T03:35:09.113Z,7.83
2018-10-07T03:37:38.335Z,7.60
2018-10-07T03:40:07.227Z,8.57
2018-10-07T03:42:36.374Z,8.37
2018-10-07T03:45:05.577Z,8.00
2018-10-07T03:47:34.816Z,7.77
2018-10-07T03:50:04.175Z,7.60
2018-10-07T03:52:33.295Z,7.87
2018-10-07T03:55:02.454Z,7.03
2018-10-07T03:57:31.696Z,6.83
2018-10-07T04:00:01.231Z,7.30
2018-10-07T04:02:30.564Z,7.97
2018-10-07T04:04:59.734Z,8.07
2018-10-07T04:07:29.092Z,9.07
2018-10-07T04:09:58.183Z,8.20
2018-10-07T04:12:27.083Z,8.33
2018-10-07T04:14:56.048Z,8.63
2018-10-07T04:17:25.068Z,7.70
2018-10-07T04:19:54.587Z,8.23
2018-10-07T04:22:23.923Z,7.63
2018-10-07T04:24:53.251Z,8.30
2018-10-07T04:27:22.669Z,7.67
2018-10-07T04:29:51.774Z,7.60
2018-10-07T04:32:20.924Z,7.47
2018-10-07T04:34:49.915Z,6.13
2018-10-07T04:37:18.764Z,6.63
2018-10-07T04:39:48.075Z,7.07
2018-10-07T04:42:17.343Z,7.30
2018-10-07T04:44:46.704Z,7.40
2018-10-07T04:47:15.799Z,6.27
2018-10-07T04:49:44.999Z,6.83
2018-10-07T04:52:14.252Z,6.90
2018-10-07T04:54:43.430Z,6.97
2018-10-07T04:57:12.807Z,7.03
2018-10-07T04:59:42.277Z,6.83
2018-10-07T05:02:11.651Z,7.10
2018-10-07T05:04:40.927Z,6.73
2018-10-07T05:07:10.297Z,7.27
2018-10-07T05:09:39.583Z,7.30
2018-10-07T05:12:09.792Z,7.43
2018-10-07T05:14:39.290Z,7.27
2018-10-07T05:17:09.191Z,7.53
2018-10-07T05:19:38.428Z,6.47
2018-10-07T05:22:07.691Z,6.40
2018-10-07T05:24:37.048Z,6.80
2018-10-07T05:27:06.329Z,6.57
2018-10-07T05:29:35.286Z,6.50
2018-10-07T05:32:04.212Z,5.73
2018-10-07T05:34:33.083Z,6.00
2018-10-07T05:37:02.110Z,5.80
2018-10-07T05:39:31.332Z,6.03
2018-10-07T05:42:00.800Z,5.37
2018-10-07T05:44:30.141Z,5.97
2018-10-07T05:46:59.563Z,14.13
2018-10-07T05:49:28.939Z,5.40
2018-10-07T05:51:57.931Z,5.23
2018-10-07T05:54:27.270Z,6.87
2018-10-07T05:56:56.487Z,9.00
2018-10-07T05:59:25.706Z,14.97
2018-10-07T06:01:56.184Z,10.83
2018-10-07T06:04:34.285Z,8.27
2018-10-07T06:07:04.408Z,7.50
2018-10-07T06:09:36.807Z,8.50
2018-10-07T06:12:05.959Z,9.10
2018-10-07T06:14:46.153Z,9.37
2018-10-07T06:17:15.454Z,8.40
2018-10-07T06:19:44.352Z,8.10
2018-10-07T06:22:13.786Z,8.60
2018-10-07T06:24:43.155Z,8.17
2018-10-07T06:27:12.348Z,8.40
2018-10-07T06:29:41.681Z,10.13
2018-10-07T06:32:11.055Z,9.13
2018-10-07T06:34:40.402Z,9.70
2018-10-07T06:37:09.276Z,9.70
2018-10-07T06:39:38.607Z,8.40
2018-10-07T06:42:07.932Z,7.80
2018-10-07T06:44:36.997Z,8.17
2018-10-07T06:47:06.379Z,8.83
2018-10-07T06:49:35.836Z,8.33
2018-10-07T06:52:05.176Z,7.10
2018-10-07T06:54:34.140Z,7.10
2018-10-07T06:57:03.239Z,7.03
2018-10-07T06:59:32.537Z,7.23
2018-10-07T07:02:01.819Z,6.50
2018-10-07T07:04:31.113Z,6.73
2018-10-07T07:07:00.524Z,6.40
2018-10-07T07:09:29.980Z,7.40
2018-10-07T07:11:59.224Z,7.17
2018-10-07T07:14:28.259Z,6.60
2018-10-07T07:16:57.719Z,6.10
2018-10-07T07:19:27.074Z,6.40
2018-10-07T07:21:56.397Z,5.70
2018-10-07T07:24:25.755Z,6.37
2018-10-07T07:26:55.011Z,5.53
2018-10-07T07:29:24.055Z,5.57
2018-10-07T07:31:53.676Z,5.50
2018-10-07T07:34:23.059Z,5.40
2018-10-07T07:36:52.139Z,5.70
2018-10-07T07:39:21.484Z,6.27
2018-10-07T07:41:50.642Z,6.60
2018-10-07T07:44:19.964Z,6.73
2018-10-07T07:46:49.151Z,5.77
2018-10-07T07:49:18.459Z,5.37
2018-10-07T07:51:47.859Z,6.13
2018-10-07T07:54:17.047Z,7.17
2018-10-07T07:56:46.511Z,8.40
2018-10-07T07:59:15.756Z,9.27
2018-10-07T08:01:45.164Z,9.33
2018-10-07T08:04:14.307Z,12.37
2018-10-07T08:06:43.724Z,12.20
2018-10-07T08:09:13.076Z,9.07
2018-10-07T08:11:42.016Z,9.50
2018-10-07T08:14:11.240Z,8.33
2018-10-07T08:16:40.553Z,14.80
2018-10-07T08:19:09.640Z,7.00
2018-10-07T08:21:38.888Z,6.67
2018-10-07T08:24:08.064Z,6.20
2018-10-07T08:26:37.384Z,7.10
2018-10-07T08:29:06.751Z,7.07
2018-10-07T08:31:35.572Z,7.10
2018-10-07T08:34:04.659Z,7.07
2018-10-07T08:36:33.915Z,7.80
2018-10-07T08:39:03.139Z,7.70
2018-10-07T08:41:32.361Z,7.40
2018-10-07T08:44:01.600Z,7.80
2018-10-07T08:46:30.482Z,7.10
2018-10-07T08:48:59.494Z,7.80
2018-10-07T08:51:28.454Z,7.00
2018-10-07T08:53:57.647Z,6.50
2018-10-07T08:56:26.767Z,6.60
2018-10-07T08:58:56.049Z,6.53
2018-10-07T09:01:25.019Z,7.57
2018-10-07T09:03:54.174Z,7.37
2018-10-07T09:06:23.304Z,8.30
2018-10-07T09:08:52.612Z,9.13
2018-10-07T09:11:21.483Z,7.80
2018-10-07T09:13:50.859Z,9.73
2018-10-07T09:16:19.827Z,7.90
2018-10-07T09:18:49.050Z,17.83
2018-10-07T09:21:18.084Z,7.80
2018-10-07T09:23:47.119Z,6.57
2018-10-07T09:26:16.103Z,6.80
2018-10-07T09:28:45.418Z,6.23
2018-10-07T09:31:15.494Z,5.47
2018-10-07T09:33:44.800Z,6.23
2018-10-07T09:36:13.777Z,5.50
2018-10-07T09:38:43.130Z,5.23
2018-10-07T09:41:14.331Z,5.17
2018-10-07T09:43:43.750Z,5.13
2018-10-07T09:46:12.767Z,5.17
2018-10-07T09:48:41.995Z,4.87
2018-10-07T09:51:11.197Z,5.60
2018-10-07T09:53:40.556Z,4.87
2018-10-07T09:56:09.813Z,5.77
2018-10-07T09:58:39.071Z,4.60
2018-10-07T10:01:08.508Z,4.70
2018-10-07T10:03:37.491Z,4.77
2018-10-07T10:06:06.636Z,4.50
2018-10-07T10:08:35.516Z,4.00
2018-10-07T10:11:05.017Z,4.47
2018-10-07T10:13:34.302Z,3.87
2018-10-07T10:16:03.619Z,4.60
2018-10-07T10:18:38.585Z,4.10
2018-10-07T10:21:15.743Z,3.77
2018-10-07T10:23:56.187Z,3.70
2018-10-07T10:26:33.228Z,3.70
2018-10-07T10:29:28.073Z,3.63
2018-10-07T10:32:37.224Z,3.60
2018-10-07T10:35:15.876Z,3.60
2018-10-07T10:38:00.092Z,3.67
2018-10-07T10:40:34.968Z,3.90
2018-10-07T10:43:15.376Z,3.27
2018-10-07T10:46:07.414Z,3.40
2018-10-07T10:48:51.144Z,3.40
2018-10-07T10:51:28.614Z,3.37
2018-10-07T10:54:10.801Z,3.83
2018-10-07T10:57:48.049Z,9.33
2018-10-07T11:00:25.122Z,5.70
2018-10-07T11:05:07.628Z,6.87
2018-10-07T11:08:25.252Z,9.90
2018-10-07T11:11:05.259Z,7.10
2018-10-07T11:13:39.322Z,4.30
2018-10-07T11:16:23.735Z,4.37
2018-10-07T11:19:34.036Z,3.90
2018-10-07T11:22:11.484Z,4.05
2018-10-07T11:26:53.041Z,3.90
2018-10-07T11:29:44.548Z,3.90
2018-10-07T11:32:20.663Z,3.83
2018-10-07T11:35:00.968Z,3.35
2018-10-07T11:37:44.503Z,3.83
2018-10-07T11:41:25.285Z,3.65
2018-10-07T11:44:02.153Z,3.92
2018-10-07T11:46:47.741Z,3.95
2018-10-07T11:49:20.842Z,3.62
2018-10-07T11:51:59.965Z,3.85
2018-10-07T11:54:42.579Z,3.60
2018-10-07T11:57:11.858Z,3.72
2018-10-07T11:59:41.265Z,3.72
2018-10-07T12:02:10.349Z,4.10
2018-10-07T12:04:39.515Z,4.35
2018-10-07T12:07:09.069Z,3.80
2018-10-07T12:09:38.351Z,3.50
2018-10-07T12:12:07.516Z,3.77
2018-10-07T12:14:36.944Z,4.20
2018-10-07T12:17:06.063Z,3.67
2018-10-07T12:19:35.440Z,3.55
2018-10-07T12:22:05.067Z,3.70
2018-10-07T12:24:34.367Z,3.60
2018-10-07T12:27:03.629Z,3.40
2018-10-07T12:29:32.759Z,3.70
2018-10-07T12:32:02.132Z,3.80
2018-10-07T12:34:31.692Z,3.83
2018-10-07T12:37:00.823Z,3.83
2018-10-07T12:39:30.719Z,3.60
2018-10-07T12:41:59.989Z,3.77
2018-10-07T12:44:28.916Z,3.90
2018-10-07T12:46:58.115Z,3.72
2018-10-07T12:49:27.401Z,3.92
2018-10-07T12:51:56.628Z,4.03
2018-10-07T12:54:25.872Z,3.92
2018-10-07T12:56:54.954Z,3.98
2018-10-07T12:59:24.249Z,4.90
2018-10-07T13:01:53.572Z,3.95
2018-10-07T13:04:23.032Z,4.12
2018-10-07T13:06:52.196Z,4.17
2018-10-07T13:09:21.344Z,3.98
2018-10-07T13:11:50.588Z,4.15
2018-10-07T13:14:19.887Z,4.23
2018-10-07T13:16:48.956Z,4.47
2018-10-07T13:19:18.052Z,4.03
2018-10-07T13:21:47.379Z,4.33
2018-10-07T13:24:16.607Z,4.50
2018-10-07T13:26:45.728Z,4.60
2018-10-07T13:29:14.713Z,4.57
2018-10-07T13:31:44.116Z,4.90
2018-10-07T13:34:13.209Z,4.47
2018-10-07T13:36:42.492Z,4.67
2018-10-07T13:39:12.832Z,4.30
2018-10-07T13:41:42.488Z,4.47
2018-10-07T13:44:11.623Z,4.50
2018-10-07T13:46:40.823Z,4.77
2018-10-07T13:49:10.288Z,4.50
2018-10-07T13:51:39.648Z,4.50
2018-10-07T13:54:08.833Z,4.57
2018-10-07T13:56:37.748Z,4.47
2018-10-07T13:59:06.878Z,4.87
2018-10-07T14:01:36.071Z,5.60
2018-10-07T14:04:05.362Z,4.40
2018-10-07T14:06:34.423Z,5.27
2018-10-07T14:09:03.875Z,6.57
2018-10-07T14:11:33.299Z,5.37
2018-10-07T14:14:02.555Z,5.03
2018-10-07T14:16:31.799Z,4.93
2018-10-07T14:19:00.935Z,6.10
2018-10-07T14:21:30.432Z,9.23
2018-10-07T14:23:59.771Z,10.73
2018-10-07T14:26:29.235Z,16.50
2018-10-07T14:28:58.769Z,11.43
2018-10-07T14:31:28.211Z,24.30
2018-10-07T14:33:57.567Z,22.70
2018-10-07T14:36:26.639Z,18.80
2018-10-07T14:38:55.526Z,21.23
2018-10-07T14:41:24.851Z,13.53
2018-10-07T14:43:54.191Z,10.20
2018-10-07T14:46:23.467Z,13.77
2018-10-07T14:48:52.799Z,10.03
2018-10-07T14:51:21.660Z,7.63
2018-10-07T14:53:50.680Z,6.17
2018-10-07T14:56:19.725Z,5.23
2018-10-07T14:58:48.928Z,5.30
2018-10-07T15:01:18.091Z,6.87
2018-10-07T15:03:47.315Z,8.27
2018-10-07T15:06:16.794Z,8.23
2018-10-07T15:08:46.019Z,8.60
2018-10-07T15:11:15.431Z,9.80
2018-10-07T15:13:44.351Z,12.60
2018-10-07T15:16:13.607Z,14.17
2018-10-07T15:18:42.800Z,16.47
2018-10-07T15:21:12.044Z,19.90
2018-10-07T15:23:41.321Z,20.23
2018-10-07T15:26:10.695Z,17.50
2018-10-07T15:28:39.715Z,14.63
2018-10-07T15:31:09.412Z,12.17
2018-10-07T15:33:38.758Z,12.50
2018-10-07T15:36:08.190Z,13.70
2018-10-07T15:38:37.315Z,14.27
2018-10-07T15:41:06.460Z,12.00
2018-10-07T15:43:35.499Z,13.40
2018-10-07T15:46:04.964Z,15.40
2018-10-07T15:48:34.599Z,15.00
2018-10-07T15:51:04.431Z,14.43
2018-10-07T15:53:33.724Z,13.47
2018-10-07T15:56:03.724Z,12.50
2018-10-07T15:58:32.986Z,12.10
2018-10-07T16:01:02.859Z,19.23
2018-10-07T16:03:32.152Z,16.10
2018-10-07T16:06:01.344Z,11.67
2018-10-07T16:08:30.790Z,9.87
2018-10-07T16:11:00.248Z,9.73
2018-10-07T16:13:29.691Z,9.83
2018-10-07T16:15:59.044Z,8.57
2018-10-07T16:18:28.369Z,8.30
2018-10-07T16:20:57.821Z,8.20
2018-10-07T16:23:27.288Z,7.73
2018-10-07T16:25:57.275Z,8.37
2018-10-07T16:28:26.422Z,8.13
2018-10-07T16:30:55.767Z,7.40
2018-10-07T16:33:26.042Z,8.77
2018-10-07T16:35:55.181Z,9.40
2018-10-07T16:38:24.941Z,11.60
2018-10-07T16:40:54.059Z,12.37
2018-10-07T16:43:23.027Z,13.80
2018-10-07T16:45:52.584Z,14.70
2018-10-07T16:48:22.005Z,14.07
2018-10-07T16:50:51.127Z,15.03
2018-10-07T16:53:20.271Z,17.90
2018-10-07T16:55:51.132Z,18.50
2018-10-07T16:58:20.734Z,16.07
2018-10-07T17:00:49.919Z,15.73
2018-10-07T17:03:19.008Z,13.27
2018-10-07T17:05:47.968Z,11.30
2018-10-07T17:08:17.605Z,10.93
2018-10-07T17:10:46.836Z,11.77
2018-10-07T17:13:17.004Z,11.87
2018-10-07T17:15:46.277Z,18.50
2018-10-07T17:18:15.227Z,35.00
2018-10-07T17:20:44.520Z,32.50
2018-10-07T17:23:13.831Z,24.37
2018-10-07T17:25:43.971Z,15.43
2018-10-07T17:28:13.400Z,14.23
2018-10-07T17:30:42.972Z,13.50
2018-10-07T17:33:12.284Z,13.63
2018-10-07T17:35:43.935Z,12.57
2018-10-07T17:38:13.296Z,12.20
2018-10-07T17:40:42.620Z,10.23
2018-10-07T17:43:12.739Z,9.50
2018-10-07T17:45:42.255Z,9.27
2018-10-07T17:48:12.368Z,8.57
2018-10-07T17:50:41.879Z,8.60
2018-10-07T17:53:10.858Z,10.80
2018-10-07T17:55:40.076Z,9.40
2018-10-07T17:58:08.668Z,8.50
2018-10-07T18:00:39.132Z,13.10
2018-10-07T18:03:08.526Z,9.97
2018-10-07T18:05:37.839Z,9.00
2018-10-07T18:08:07.525Z,8.73
2018-10-07T18:10:36.760Z,9.83
2018-10-07T18:13:06.304Z,9.40
2018-10-07T18:15:35.294Z,10.93
2018-10-07T18:18:06.205Z,11.87
2018-10-07T18:20:35.484Z,13.67
2018-10-07T18:23:05.240Z,13.87
2018-10-07T18:25:35.178Z,13.90
2018-10-07T18:28:04.453Z,13.10
2018-10-07T18:30:34.052Z,13.80
2018-10-07T18:33:03.769Z,12.80
2018-10-07T18:35:33.275Z,11.90
2018-10-07T18:38:04.627Z,10.80
2018-10-07T18:40:34.023Z,12.70
2018-10-07T18:43:04.004Z,10.87
2018-10-07T18:45:33.227Z,12.70
2018-10-07T18:48:02.646Z,13.93
2018-10-07T18:50:32.624Z,17.40
2018-10-07T18:53:01.764Z,19.60
2018-10-07T18:55:31.048Z,21.97
2018-10-07T18:58:00.366Z,18.40
2018-10-07T19:00:30.391Z,16.13
2018-10-07T19:02:59.964Z,14.90
2018-10-07T19:05:28.785Z,14.70
2018-10-07T19:07:58.106Z,15.10
2018-10-07T19:10:27.304Z,20.20
2018-10-07T19:12:57.495Z,17.97
2018-10-07T19:15:27.883Z,15.07
2018-10-07T19:17:56.940Z,12.47
2018-10-07T19:20:26.031Z,11.00
2018-10-07T19:22:55.183Z,10.97
2018-10-07T19:25:24.419Z,9.80
2018-10-07T19:27:53.577Z,8.93
2018-10-07T19:30:23.078Z,9.53
2018-10-07T19:32:52.274Z,9.77
2018-10-07T19:35:21.396Z,9.70
2018-10-07T19:37:50.803Z,12.80
2018-10-07T19:40:20.279Z,10.03
2018-10-07T19:42:49.645Z,9.90
2018-10-07T19:45:18.906Z,10.60
2018-10-07T19:47:48.028Z,11.63
2018-10-07T19:50:17.184Z,11.27
2018-10-07T19:52:46.450Z,9.23
2018-10-07T19:55:15.492Z,9.57
2018-10-07T19:57:44.763Z,10.10
2018-10-07T20:00:14.043Z,9.57
2018-10-07T20:02:43.406Z,10.00
2018-10-07T20:05:12.877Z,8.83
2018-10-07T20:07:42.211Z,9.43
2018-10-07T20:10:11.589Z,8.23
2018-10-07T20:12:40.807Z,8.33
2018-10-07T20:15:09.628Z,9.10
2018-10-07T20:17:38.913Z,10.30
2018-10-07T20:20:08.436Z,8.77
2018-10-07T20:22:37.695Z,8.23
2018-10-07T20:25:06.835Z,9.00
2018-10-07T20:27:36.147Z,8.63
2018-10-07T20:30:05.183Z,8.47
2018-10-07T20:32:34.631Z,8.80
2018-10-07T20:35:03.900Z,9.27
2018-10-07T20:37:33.334Z,8.93
2018-10-07T20:40:02.687Z,9.53
2018-10-07T20:42:32.071Z,7.97
2018-10-07T20:45:01.501Z,8.10
2018-10-07T20:47:30.445Z,8.60
2018-10-07T20:49:59.358Z,8.20
2018-10-07T20:52:28.928Z,8.33
2018-10-07T20:54:57.987Z,9.30
2018-10-07T20:57:27.275Z,9.23
2018-10-07T20:59:56.503Z,7.77
2018-10-07T21:02:25.908Z,8.43
2018-10-07T21:04:55.031Z,8.63
2018-10-07T21:07:24.510Z,8.53
2018-10-07T21:09:53.780Z,8.67
2018-10-07T21:12:22.959Z,8.40
2018-10-07T21:14:52.131Z,8.33
2018-10-07T21:17:21.572Z,8.50
2018-10-07T21:19:50.802Z,8.37
2018-10-07T21:22:20.107Z,8.33
2018-10-07T21:24:49.463Z,9.77
2018-10-07T21:27:18.803Z,9.03
2018-10-07T21:29:48.232Z,8.90
2018-10-07T21:32:17.162Z,9.13
2018-10-07T21:34:46.018Z,8.63
2018-10-07T21:37:15.159Z,8.87
2018-10-07T21:39:44.547Z,8.47
2018-10-07T21:42:13.987Z,8.70
2018-10-07T21:44:43.204Z,8.47
2018-10-07T21:47:12.396Z,8.30
2018-10-07T21:49:41.703Z,7.87
2018-10-07T21:52:10.760Z,8.03
2018-10-07T21:54:39.916Z,8.00
2018-10-07T21:57:08.928Z,6.60
2018-10-07T21:59:38.070Z,6.23
2018-10-07T22:02:07.463Z,7.07
2018-10-07T22:04:36.701Z,5.93
2018-10-07T22:07:05.815Z,5.60
2018-10-07T22:09:34.998Z,5.77
2018-10-07T22:12:04.467Z,5.70
2018-10-07T22:14:33.595Z,5.83
2018-10-07T22:17:02.800Z,5.37
2018-10-07T22:19:32.099Z,5.47
2018-10-07T22:22:01.499Z,5.57
2018-10-07T22:24:30.467Z,5.80
2018-10-07T22:26:59.450Z,5.47
2018-10-07T22:29:28.704Z,6.03
2018-10-07T22:31:57.840Z,6.27
2018-10-07T22:34:27.088Z,6.53
2018-10-07T22:36:56.277Z,6.63
2018-10-07T22:39:25.242Z,7.10
2018-10-07T22:41:54.638Z,7.00
2018-10-07T22:44:23.539Z,7.17
2018-10-07T22:46:52.916Z,6.90
2018-10-07T22:49:22.298Z,6.47
2018-10-07T22:51:51.708Z,6.43
2018-10-07T22:54:21.074Z,8.20
2018-10-07T22:56:50.407Z,7.23
2018-10-07T22:59:19.803Z,6.77
2018-10-07T23:01:48.835Z,6.97
2018-10-07T23:04:17.767Z,7.17
2018-10-07T23:06:46.783Z,7.23
2018-10-07T23:09:15.980Z,7.03
2018-10-07T23:11:45.275Z,7.43
2018-10-07T23:14:14.679Z,6.97
2018-10-07T23:16:43.940Z,6.97
2018-10-07T23:19:13.192Z,7.60
2018-10-07T23:21:42.389Z,8.00
2018-10-07T23:24:11.380Z,7.07
2018-10-07T23:26:40.622Z,7.90
2018-10-07T23:29:09.666Z,7.77
2018-10-07T23:31:38.987Z,7.03
2018-10-07T23:34:08.397Z,8.40
2018-10-07T23:36:37.576Z,7.33
2018-10-07T23:39:09.436Z,7.83
2018-10-07T23:41:38.743Z,7.67
2018-10-07T23:44:08.156Z,7.93
2018-10-07T23:46:37.227Z,7.93
2018-10-07T23:49:06.459Z,7.57
2018-10-07T23:51:35.739Z,7.17
2018-10-07T23:54:05.139Z,7.37
2018-10-07T23:56:34.354Z,7.77
2018-10-07T23:59:03.552Z,7.97
